createdAt,value
2023-02-11T00:00:58.643Z,14.95
2023-02-11T00:03:26.281Z,14.93
2023-02-11T00:05:58.898Z,14.23
2023-02-11T00:08:26.678Z,14.95
2023-02-11T00:10:57.513Z,13.85
2023-02-11T00:13:25.134Z,13.82
2023-02-11T00:15:52.510Z,14.45
2023-02-11T00:18:19.743Z,14.57
2023-02-11T00:20:47.130Z,14.98
2023-02-11T00:23:15.009Z,14.32
2023-02-11T00:25:43.919Z,13.48
2023-02-11T00:28:12.095Z,12.65
2023-02-11T00:30:39.651Z,13.40
2023-02-11T00:33:07.484Z,12.68
2023-02-11T00:35:37.937Z,13.80
2023-02-11T00:38:05.319Z,13.43
2023-02-11T00:40:32.919Z,13.18
2023-02-11T00:43:00.622Z,13.10
2023-02-11T00:45:28.912Z,12.98
2023-02-11T00:47:56.841Z,13.30
2023-02-11T00:50:24.755Z,13.27
2023-02-11T00:52:52.324Z,12.40
2023-02-11T00:55:19.917Z,12.73
2023-02-11T00:57:47.146Z,12.75
2023-02-11T01:00:15.341Z,13.45
2023-02-11T01:02:42.763Z,12.30
2023-02-11T01:05:10.091Z,12.98
2023-02-11T01:07:37.621Z,12.80
2023-02-11T01:10:05.144Z,14.10
2023-02-11T01:12:35.947Z,13.48
2023-02-11T01:15:04.803Z,14.25
2023-02-11T01:17:32.327Z,13.75
2023-02-11T01:19:59.932Z,12.87
2023-02-11T01:22:27.348Z,13.45
2023-02-11T01:24:54.933Z,13.25
2023-02-11T01:27:22.176Z,12.80
2023-02-11T01:29:49.668Z,13.75
2023-02-11T01:32:17.092Z,13.23
2023-02-11T01:34:44.787Z,14.25
2023-02-11T01:37:12.341Z,14.27
2023-02-11T01:39:39.941Z,13.35
2023-02-11T01:42:07.676Z,13.65
2023-02-11T01:44:37.946Z,13.70
2023-02-11T01:47:06.576Z,12.88
2023-02-11T01:49:36.844Z,12.32
2023-02-11T01:52:11.679Z,12.82
2023-02-11T01:55:03.949Z,14.55
2023-02-11T01:57:33.190Z,11.40
2023-02-11T02:00:18.372Z,12.77
2023-02-11T02:03:08.684Z,12.93
2023-02-11T02:05:38.878Z,12.52
2023-02-11T02:08:34.494Z,12.63
2023-02-11T02:11:01.819Z,11.80
2023-02-11T02:13:31.806Z,12.93
2023-02-11T02:16:09.646Z,12.55
2023-02-11T02:18:46.323Z,12.27
2023-02-11T02:21:25.668Z,13.02
2023-02-11T02:23:53.060Z,12.50
2023-02-11T02:26:36.962Z,12.18
2023-02-11T02:29:19.478Z,12.90
2023-02-11T02:32:11.053Z,11.82
2023-02-11T02:35:03.691Z,12.02
2023-02-11T02:37:46.382Z,10.87
2023-02-11T02:40:20.775Z,12.43
2023-02-11T02:42:48.698Z,12.68
2023-02-11T02:45:16.386Z,12.13
2023-02-11T02:47:44.077Z,11.90
2023-02-11T02:50:12.355Z,12.77
2023-02-11T02:53:04.351Z,12.98
2023-02-11T02:55:31.583Z,12.25
2023-02-11T02:58:08.798Z,12.82
2023-02-11T03:00:54.310Z,11.45
2023-02-11T03:03:44.328Z,11.40
2023-02-11T03:06:15.793Z,12.30
2023-02-11T03:08:59.987Z,12.52
2023-02-11T03:11:29.529Z,11.90
2023-02-11T03:13:57.224Z,12.48
2023-02-11T03:16:27.649Z,12.53
2023-02-11T03:19:05.413Z,11.27
2023-02-11T03:21:34.199Z,11.75
2023-02-11T03:24:06.348Z,11.35
2023-02-11T03:26:39.808Z,11.65
2023-02-11T03:29:16.232Z,11.13
2023-02-11T03:31:52.759Z,10.80
2023-02-11T03:34:30.104Z,11.40
2023-02-11T03:37:08.646Z,10.60
2023-02-11T03:39:39.715Z,10.27
2023-02-11T03:42:08.108Z,12.13
2023-02-11T03:44:41.112Z,11.57
2023-02-11T03:47:09.821Z,10.93
2023-02-11T03:49:38.948Z,10.45
2023-02-11T03:52:08.001Z,12.18
2023-02-11T03:54:35.831Z,12.37
2023-02-11T03:57:03.121Z,11.90
2023-02-11T03:59:30.721Z,11.45
2023-02-11T04:01:59.719Z,10.23
2023-02-11T04:04:26.961Z,11.98
2023-02-11T04:06:54.568Z,11.23
2023-02-11T04:09:21.960Z,10.90
2023-02-11T04:11:49.443Z,11.45
2023-02-11T04:14:16.840Z,11.15
2023-02-11T04:16:44.369Z,11.25
2023-02-11T04:19:11.728Z,10.73
2023-02-11T04:21:39.140Z,10.73
2023-02-11T04:24:06.845Z,11.00
2023-02-11T04:26:34.264Z,10.45
2023-02-11T04:29:01.732Z,12.00
2023-02-11T04:31:29.124Z,10.33
2023-02-11T04:33:57.271Z,11.10
2023-02-11T04:36:24.854Z,9.68
2023-02-11T04:38:52.456Z,11.70
2023-02-11T04:41:20.160Z,11.38
2023-02-11T04:43:47.737Z,10.57
2023-02-11T04:46:15.298Z,11.30
2023-02-11T04:48:42.743Z,10.52
2023-02-11T04:51:10.466Z,11.18
2023-02-11T04:53:38.174Z,10.32
2023-02-11T04:56:05.868Z,10.17
2023-02-11T04:58:33.604Z,9.65
2023-02-11T05:01:08.366Z,10.25
2023-02-11T05:03:36.608Z,10.73
2023-02-11T05:06:05.010Z,10.77
2023-02-11T05:08:32.636Z,10.43
2023-02-11T05:11:00.179Z,10.73
2023-02-11T05:13:27.748Z,9.48
2023-02-11T05:15:55.183Z,10.50
2023-02-11T05:18:23.027Z,10.75
2023-02-11T05:20:50.755Z,9.57
2023-02-11T05:23:18.299Z,10.23
2023-02-11T05:25:45.891Z,10.35
2023-02-11T05:28:13.396Z,10.75
2023-02-11T05:30:41.217Z,9.75
2023-02-11T05:33:08.757Z,10.43
2023-02-11T05:35:36.304Z,10.23
2023-02-11T05:38:04.023Z,10.25
2023-02-11T05:40:31.715Z,10.80
2023-02-11T05:42:59.203Z,11.00
2023-02-11T05:45:26.642Z,11.23
2023-02-11T05:47:54.207Z,10.05
2023-02-11T05:50:21.829Z,11.63
2023-02-11T05:52:49.415Z,10.50
2023-02-11T05:55:17.211Z,11.38
2023-02-11T05:57:44.907Z,11.97
2023-02-11T06:00:13.503Z,10.70
2023-02-11T06:02:41.371Z,11.00
2023-02-11T06:05:09.154Z,11.70
2023-02-11T06:07:36.769Z,11.40
2023-02-11T06:10:04.585Z,12.13
2023-02-11T06:12:32.135Z,12.18
2023-02-11T06:14:59.579Z,10.80
2023-02-11T06:17:27.229Z,11.35
2023-02-11T06:19:54.778Z,11.13
2023-02-11T06:22:22.583Z,12.60
2023-02-11T06:25:00.736Z,10.85
2023-02-11T06:27:29.683Z,11.23
2023-02-11T06:29:57.249Z,11.70
2023-02-11T06:32:42.940Z,10.23
2023-02-11T06:35:12.433Z,10.57
2023-02-11T06:37:41.266Z,11.52
2023-02-11T06:40:09.159Z,10.85
2023-02-11T06:42:39.205Z,12.40
2023-02-11T06:45:09.381Z,11.18
2023-02-11T06:47:37.781Z,11.73
2023-02-11T06:50:06.053Z,12.38
2023-02-11T06:52:33.347Z,11.35
2023-02-11T06:55:00.976Z,12.52
2023-02-11T06:57:28.680Z,13.45
2023-02-11T06:59:56.355Z,13.40
2023-02-11T07:02:24.376Z,12.25
2023-02-11T07:04:52.082Z,13.68
2023-02-11T07:07:19.793Z,13.40
2023-02-11T07:09:47.685Z,14.07
2023-02-11T07:12:15.360Z,13.97
2023-02-11T07:14:43.087Z,15.13
2023-02-11T07:17:10.691Z,14.23
2023-02-11T07:19:38.794Z,13.77
2023-02-11T07:22:06.289Z,12.30
2023-02-11T07:24:33.796Z,12.13
2023-02-11T07:27:01.553Z,12.38
2023-02-11T07:29:29.490Z,13.32
2023-02-11T07:31:57.191Z,12.77
2023-02-11T07:34:25.164Z,12.70
2023-02-11T07:36:52.800Z,16.47
2023-02-11T07:39:21.980Z,11.85
2023-02-11T07:41:49.697Z,12.73
2023-02-11T07:44:17.556Z,11.80
2023-02-11T07:46:45.854Z,11.82
2023-02-11T07:49:13.296Z,10.90
2023-02-11T07:51:40.805Z,11.40
2023-02-11T07:54:08.568Z,11.13
2023-02-11T07:56:36.113Z,11.52
2023-02-11T07:59:04.582Z,11.88
2023-02-11T08:01:32.114Z,12.03
2023-02-11T08:04:00.817Z,12.75
2023-02-11T08:06:31.580Z,12.27
2023-02-11T08:08:59.658Z,12.60
2023-02-11T08:11:29.008Z,13.65
2023-02-11T08:13:56.947Z,12.30
2023-02-11T08:16:30.102Z,12.63
2023-02-11T08:18:59.669Z,13.57
2023-02-11T08:21:28.123Z,12.27
2023-02-11T08:23:56.120Z,13.38
2023-02-11T08:26:26.811Z,13.17
2023-02-11T08:28:56.401Z,12.85
2023-02-11T08:31:38.929Z,13.13
2023-02-11T08:34:06.911Z,12.98
2023-02-11T08:36:37.820Z,13.48
2023-02-11T08:39:18.483Z,12.90
2023-02-11T08:41:49.324Z,13.18
2023-02-11T08:44:18.417Z,13.50
2023-02-11T08:46:46.130Z,13.15
2023-02-11T08:49:14.684Z,13.68
2023-02-11T08:51:42.683Z,13.40
2023-02-11T08:54:10.690Z,12.25
2023-02-11T08:56:39.033Z,14.68
2023-02-11T08:59:07.514Z,14.95
2023-02-11T09:01:35.117Z,13.70
2023-02-11T09:04:03.029Z,14.30
2023-02-11T09:06:31.029Z,15.23
2023-02-11T09:08:58.430Z,14.95
2023-02-11T09:11:29.476Z,15.32
2023-02-11T09:13:56.953Z,15.02
2023-02-11T09:16:27.273Z,15.27
2023-02-11T09:18:54.908Z,18.05
2023-02-11T09:21:22.352Z,16.70
2023-02-11T09:23:50.717Z,17.10
2023-02-11T09:26:20.607Z,15.80
2023-02-11T09:28:48.998Z,15.43
2023-02-11T09:31:20.071Z,16.17
2023-02-11T09:33:50.616Z,18.00
2023-02-11T09:36:21.619Z,16.15
2023-02-11T09:38:49.619Z,17.92
2023-02-11T09:41:44.623Z,17.73
2023-02-11T09:44:28.626Z,18.88
2023-02-11T09:47:02.044Z,18.70
2023-02-11T09:50:00.842Z,17.58
2023-02-11T09:52:37.068Z,16.85
2023-02-11T09:55:29.633Z,17.63
2023-02-11T09:57:58.096Z,16.95
2023-02-11T10:00:34.317Z,17.20
2023-02-11T10:03:12.499Z,17.27
2023-02-11T10:05:55.386Z,17.17
2023-02-11T10:08:51.992Z,17.27
2023-02-11T10:11:31.685Z,16.98
2023-02-11T10:14:04.318Z,17.63
2023-02-11T10:16:59.394Z,18.05
2023-02-11T10:19:42.179Z,17.05
2023-02-11T10:22:19.095Z,17.97
2023-02-11T10:24:55.316Z,17.63
2023-02-11T10:27:28.883Z,16.73
2023-02-11T10:30:03.184Z,17.63
2023-02-11T10:32:45.771Z,17.35
2023-02-11T10:35:18.792Z,17.50
2023-02-11T10:37:46.765Z,18.17
2023-02-11T10:40:16.660Z,18.65
2023-02-11T10:42:48.662Z,17.75
2023-02-11T10:45:47.430Z,18.08
2023-02-11T10:48:38.422Z,17.20
2023-02-11T10:51:17.118Z,18.65
2023-02-11T10:53:46.420Z,18.20
2023-02-11T10:56:27.689Z,18.15
2023-02-11T10:59:00.128Z,19.45
2023-02-11T11:01:42.143Z,18.77
2023-02-11T11:04:34.140Z,19.67
2023-02-11T11:07:34.107Z,18.15
2023-02-11T11:10:08.610Z,17.50
2023-02-11T11:12:40.359Z,16.02
2023-02-11T11:15:11.404Z,15.33
2023-02-11T11:17:39.203Z,16.35
2023-02-11T11:20:19.553Z,15.32
2023-02-11T11:22:48.442Z,14.13
2023-02-11T11:25:27.842Z,15.55
2023-02-11T11:27:57.913Z,14.27
2023-02-11T11:30:32.337Z,15.48
2023-02-11T11:33:00.445Z,14.27
2023-02-11T11:35:29.446Z,15.73
2023-02-11T11:38:04.130Z,15.55
2023-02-11T11:40:33.447Z,14.27
2023-02-11T11:43:13.453Z,14.55
2023-02-11T11:45:57.129Z,14.73
2023-02-11T11:48:40.185Z,15.85
2023-02-11T11:51:11.273Z,15.02
2023-02-11T11:53:43.371Z,14.20
2023-02-11T11:56:20.517Z,13.27
2023-02-11T11:58:48.802Z,15.00
2023-02-11T12:01:19.216Z,13.85
2023-02-11T12:04:11.681Z,14.43
2023-02-11T12:07:05.500Z,13.53
2023-02-11T12:09:45.140Z,14.20
2023-02-11T12:12:37.465Z,14.40
2023-02-11T12:15:45.141Z,14.02
2023-02-11T12:18:17.141Z,12.52
2023-02-11T12:21:00.003Z,11.70
2023-02-11T12:23:38.153Z,12.38
2023-02-11T12:26:24.493Z,12.80
2023-02-11T12:29:16.719Z,12.23
2023-02-11T12:32:00.271Z,12.80
2023-02-11T12:34:47.479Z,12.50
2023-02-11T12:37:15.152Z,13.13
2023-02-11T12:40:10.406Z,13.10
2023-02-11T12:43:07.916Z,12.25
2023-02-11T12:45:58.203Z,12.75
2023-02-11T12:48:35.402Z,10.13
2023-02-11T12:51:16.491Z,10.25
2023-02-11T12:53:47.424Z,10.82
2023-02-11T12:56:28.827Z,10.90
2023-02-11T12:58:58.166Z,9.85
2023-02-11T13:01:32.839Z,9.20
2023-02-11T13:04:29.503Z,10.25
2023-02-11T13:07:02.514Z,9.25
2023-02-11T13:09:35.088Z,9.27
2023-02-11T13:12:24.178Z,9.63
2023-02-11T13:14:53.877Z,9.40
2023-02-11T13:17:28.182Z,9.13
2023-02-11T13:20:01.559Z,10.13
2023-02-11T13:22:35.842Z,10.13
2023-02-11T13:25:33.049Z,9.55
2023-02-11T13:28:18.579Z,9.73
2023-02-11T13:30:57.687Z,9.93
2023-02-11T13:33:34.073Z,9.52
2023-02-11T13:36:04.356Z,8.93
2023-02-11T13:38:32.354Z,8.77
2023-02-11T13:41:07.017Z,9.70
2023-02-11T13:43:36.383Z,10.10
2023-02-11T13:46:11.958Z,9.57
2023-02-11T13:48:47.197Z,9.13
2023-02-11T13:51:17.776Z,9.73
2023-02-11T13:53:47.934Z,9.63
2023-02-11T13:56:32.366Z,9.48
2023-02-11T13:59:02.408Z,10.25
2023-02-11T14:02:23.566Z,10.18
2023-02-11T14:05:24.484Z,10.48
2023-02-11T14:08:28.796Z,10.60
2023-02-11T14:11:01.496Z,10.63
2023-02-11T14:13:33.549Z,10.75
2023-02-11T14:16:16.978Z,10.95
2023-02-11T14:18:44.935Z,10.93
2023-02-11T14:21:22.092Z,11.07
2023-02-11T14:23:52.866Z,11.20
2023-02-11T14:26:20.490Z,11.95
2023-02-11T14:29:07.683Z,12.25
2023-02-11T14:31:35.321Z,11.90
2023-02-11T14:34:15.225Z,10.50
2023-02-11T14:36:57.225Z,13.25
2023-02-11T14:39:33.229Z,12.05
2023-02-11T14:42:02.002Z,11.45
2023-02-11T14:44:31.896Z,11.18
2023-02-11T14:47:00.157Z,11.67
2023-02-11T14:49:38.334Z,12.00
2023-02-11T14:52:31.453Z,12.52
2023-02-11T14:55:13.600Z,10.70
2023-02-11T14:57:42.579Z,12.65
2023-02-11T15:00:28.599Z,13.50
2023-02-11T15:02:56.602Z,11.57
2023-02-11T15:05:29.187Z,12.18
2023-02-11T15:08:00.260Z,12.15
2023-02-11T15:10:38.742Z,13.35
2023-02-11T15:13:06.426Z,11.73
2023-02-11T15:15:36.293Z,12.57
2023-02-11T15:18:05.003Z,13.00
2023-02-11T15:20:33.979Z,13.55
2023-02-11T15:23:08.898Z,13.35
2023-02-11T15:25:44.209Z,12.33
2023-02-11T15:28:22.063Z,11.52
2023-02-11T15:31:06.710Z,11.55
2023-02-11T15:33:34.261Z,12.02
2023-02-11T15:36:05.443Z,12.05
2023-02-11T15:38:34.260Z,11.57
2023-02-11T15:41:03.615Z,12.60
2023-02-11T15:43:48.267Z,13.40
2023-02-11T15:46:21.427Z,12.27
2023-02-11T15:48:55.979Z,12.02
2023-02-11T15:51:25.480Z,12.10
2023-02-11T15:53:57.152Z,12.38
2023-02-11T15:56:37.981Z,12.30
2023-02-11T15:59:24.274Z,12.38
2023-02-11T16:01:52.973Z,12.55
2023-02-11T16:04:23.710Z,12.27
2023-02-11T16:06:52.002Z,12.63
2023-02-11T16:09:19.984Z,11.35
2023-02-11T16:11:48.036Z,13.07
2023-02-11T16:14:23.861Z,11.90
2023-02-11T16:16:54.297Z,11.37
2023-02-11T16:19:25.374Z,12.43
2023-02-11T16:21:54.287Z,14.48
2023-02-11T16:24:28.268Z,14.23
2023-02-11T16:26:58.640Z,12.90
2023-02-11T16:29:29.991Z,13.10
2023-02-11T16:32:16.992Z,13.95
2023-02-11T16:34:45.092Z,12.85
2023-02-11T16:37:12.994Z,12.23
2023-02-11T16:39:41.084Z,13.05
2023-02-11T16:42:13.141Z,13.07
2023-02-11T16:44:40.485Z,12.10
2023-02-11T16:47:11.177Z,12.85
2023-02-11T16:49:42.494Z,13.32
2023-02-11T16:52:14.867Z,13.15
2023-02-11T16:54:43.007Z,11.30
2023-02-11T16:57:30.473Z,12.13
2023-02-11T16:59:59.470Z,11.95
2023-02-11T17:02:29.310Z,11.57
2023-02-11T17:05:00.117Z,11.48
2023-02-11T17:07:28.045Z,12.60
2023-02-11T17:09:55.897Z,11.85
2023-02-11T17:12:26.879Z,12.70
2023-02-11T17:14:54.885Z,12.10
2023-02-11T17:17:24.072Z,12.30
2023-02-11T17:19:52.107Z,12.07
2023-02-11T17:22:20.007Z,12.32
2023-02-11T17:24:47.672Z,12.35
2023-02-11T17:27:15.675Z,13.43
2023-02-11T17:29:43.889Z,13.07
2023-02-11T17:32:13.091Z,13.77
2023-02-11T17:34:41.681Z,12.65
2023-02-11T17:37:11.805Z,12.95
2023-02-11T17:39:40.078Z,12.35
2023-02-11T17:42:08.865Z,12.48
2023-02-11T17:44:36.896Z,11.70
2023-02-11T17:47:04.765Z,11.95
2023-02-11T17:49:32.337Z,13.73
2023-02-11T17:52:00.127Z,12.50
2023-02-11T17:54:27.998Z,11.48
2023-02-11T17:56:58.216Z,13.37
2023-02-11T17:59:26.540Z,14.43
2023-02-11T18:01:54.140Z,14.15
2023-02-11T18:04:22.129Z,14.43
2023-02-11T18:06:50.702Z,14.43
2023-02-11T18:09:18.345Z,13.30
2023-02-11T18:11:46.912Z,14.13
2023-02-11T18:14:14.914Z,13.93
2023-02-11T18:16:45.074Z,14.05
2023-02-11T18:19:13.150Z,13.35
2023-02-11T18:21:40.918Z,13.87
2023-02-11T18:24:08.795Z,13.95
2023-02-11T18:26:36.920Z,14.50
2023-02-11T18:29:06.537Z,13.63
2023-02-11T18:31:35.704Z,13.60
2023-02-11T18:34:07.684Z,13.97
2023-02-11T18:36:36.573Z,15.30
2023-02-11T18:39:05.203Z,13.73
2023-02-11T18:41:32.709Z,13.00
2023-02-11T18:44:03.176Z,12.50
2023-02-11T18:46:31.473Z,13.50
2023-02-11T18:49:00.752Z,12.70
2023-02-11T18:51:28.908Z,13.57
2023-02-11T18:53:56.182Z,13.32
2023-02-11T18:56:27.948Z,12.60
2023-02-11T18:58:57.047Z,12.13
2023-02-11T19:01:27.364Z,13.18
2023-02-11T19:03:57.500Z,15.27
2023-02-11T19:06:28.147Z,14.82
2023-02-11T19:08:59.715Z,13.60
2023-02-11T19:11:50.399Z,14.10
2023-02-11T19:14:31.594Z,12.52
2023-02-11T19:17:01.169Z,12.30
2023-02-11T19:19:31.135Z,12.25
2023-02-11T19:22:00.083Z,11.48
2023-02-11T19:24:29.011Z,12.77
2023-02-11T19:26:59.393Z,12.82
2023-02-11T19:29:27.959Z,12.23
2023-02-11T19:31:56.140Z,11.90
2023-02-11T19:34:23.766Z,11.82
2023-02-11T19:36:51.565Z,11.90
2023-02-11T19:39:19.401Z,12.30
2023-02-11T19:41:47.060Z,12.02
2023-02-11T19:44:15.063Z,11.52
2023-02-11T19:46:42.934Z,11.25
2023-02-11T19:49:12.397Z,11.67
2023-02-11T19:51:40.064Z,12.23
2023-02-11T19:54:08.150Z,12.02
2023-02-11T19:56:38.063Z,12.43
2023-02-11T19:59:09.113Z,11.88
2023-02-11T20:01:37.249Z,12.07
2023-02-11T20:04:04.979Z,12.18
2023-02-11T20:06:33.625Z,11.90
2023-02-11T20:09:04.073Z,11.60
2023-02-11T20:11:32.976Z,11.98
2023-02-11T20:14:01.076Z,13.23
2023-02-11T20:16:46.214Z,10.30
2023-02-11T20:19:18.798Z,12.70
2023-02-11T20:21:48.278Z,11.60
2023-02-11T20:24:19.148Z,12.20
2023-02-11T20:26:48.342Z,11.07
2023-02-11T20:29:17.450Z,10.75
2023-02-11T20:31:45.610Z,11.55
2023-02-11T20:34:13.656Z,12.05
2023-02-11T20:36:41.311Z,11.98
2023-02-11T20:39:11.188Z,11.17
2023-02-11T20:41:40.225Z,11.65
2023-02-11T20:44:10.644Z,11.32
2023-02-11T20:46:40.559Z,11.02
2023-02-11T20:49:17.316Z,11.02
2023-02-11T20:51:45.652Z,11.17
2023-02-11T20:54:15.431Z,11.15
2023-02-11T20:56:44.064Z,10.68
2023-02-11T20:59:14.062Z,10.68
2023-02-11T21:01:44.044Z,10.20
2023-02-11T21:04:25.666Z,10.07
2023-02-11T21:06:56.235Z,10.05
2023-02-11T21:09:27.830Z,10.88
2023-02-11T21:11:56.087Z,11.00
2023-02-11T21:14:25.141Z,10.55
2023-02-11T21:16:53.019Z,9.33
2023-02-11T21:19:21.518Z,10.15
2023-02-11T21:21:49.941Z,9.55
2023-02-11T21:24:17.834Z,10.07
2023-02-11T21:26:45.537Z,9.57
2023-02-11T21:29:13.455Z,9.57
2023-02-11T21:31:41.180Z,8.95
2023-02-11T21:34:08.690Z,9.02
2023-02-11T21:36:37.045Z,10.18
2023-02-11T21:39:05.904Z,9.52
2023-02-11T21:41:33.702Z,9.87
2023-02-11T21:44:01.696Z,9.65
2023-02-11T21:46:29.605Z,10.07
2023-02-11T21:48:58.042Z,9.65
2023-02-11T21:51:26.416Z,9.43
2023-02-11T21:53:58.939Z,9.83
2023-02-11T21:56:29.868Z,9.63
2023-02-11T21:58:58.220Z,9.02
2023-02-11T22:01:31.032Z,9.73
2023-02-11T22:03:59.490Z,11.30
2023-02-11T22:06:31.117Z,9.47
2023-02-11T22:08:59.871Z,9.68
2023-02-11T22:11:27.273Z,9.13
2023-02-11T22:13:56.583Z,9.98
2023-02-11T22:16:24.363Z,9.50
2023-02-11T22:18:52.283Z,8.80
2023-02-11T22:21:22.175Z,8.55
2023-02-11T22:23:50.515Z,9.95
2023-02-11T22:26:20.818Z,9.88
2023-02-11T22:28:48.883Z,10.65
2023-02-11T22:31:20.376Z,9.57
2023-02-11T22:33:48.077Z,9.63
2023-02-11T22:36:23.168Z,10.30
2023-02-11T22:38:51.129Z,8.88
2023-02-11T22:41:18.885Z,9.25
2023-02-11T22:43:46.901Z,10.93
2023-02-11T22:46:17.414Z,9.70
2023-02-11T22:48:45.290Z,9.13
2023-02-11T22:51:20.885Z,9.15
2023-02-11T22:53:56.889Z,8.70
2023-02-11T22:56:25.307Z,9.20
2023-02-11T22:58:54.007Z,9.80
2023-02-11T23:01:21.327Z,9.60
2023-02-11T23:03:49.103Z,9.18
2023-02-11T23:06:17.132Z,9.48
2023-02-11T23:08:45.148Z,9.50
2023-02-11T23:11:15.903Z,9.32
2023-02-11T23:13:45.131Z,9.90
2023-02-11T23:16:16.142Z,9.93
2023-02-11T23:18:44.910Z,10.20
2023-02-11T23:21:32.917Z,9.37
2023-02-11T23:24:06.323Z,9.40
2023-02-11T23:26:34.097Z,9.68
2023-02-11T23:29:01.778Z,9.73
2023-02-11T23:31:37.739Z,10.05
2023-02-11T23:34:09.042Z,8.87
2023-02-11T23:36:37.075Z,9.15
2023-02-11T23:39:05.124Z,9.13
2023-02-11T23:41:32.545Z,10.25
2023-02-11T23:44:00.348Z,9.02
2023-02-11T23:46:28.191Z,9.93
2023-02-11T23:48:55.936Z,9.13
2023-02-11T23:51:23.936Z,8.98
2023-02-11T23:53:52.936Z,10.25
2023-02-11T23:56:22.935Z,9.52
2023-02-11T23:58:52.152Z,9.97
